createdAt,value
2019-05-18T00:00:37.874Z,98405.52
2019-05-18T00:03:09.656Z,98401.92
2019-05-18T00:05:41.066Z,98408.39
2019-05-18T00:08:12.517Z,98410.84
2019-05-18T00:10:44.282Z,98402.28
2019-05-18T00:13:15.691Z,98402.30
2019-05-18T00:15:47.052Z,98405.00
2019-05-18T00:18:18.511Z,98400.59
2019-05-18T00:20:49.846Z,98401.92
2019-05-18T00:23:21.302Z,98406.06
2019-05-18T00:25:52.756Z,98392.78
2019-05-18T00:28:25.957Z,98400.42
2019-05-18T00:30:57.194Z,98398.20
2019-05-18T00:33:28.722Z,98392.50
2019-05-18T00:36:00.111Z,98383.86
2019-05-18T00:38:31.522Z,98383.42
2019-05-18T00:41:02.978Z,98386.22
2019-05-18T00:43:34.566Z,98384.91
2019-05-18T00:46:06.271Z,98377.91
2019-05-18T00:48:38.132Z,98375.80
2019-05-18T00:51:09.558Z,98377.99
2019-05-18T00:53:40.864Z,98373.70
2019-05-18T00:56:12.302Z,98372.80
2019-05-18T00:58:43.786Z,98376.75
2019-05-18T01:01:15.426Z,98374.95
2019-05-18T01:03:48.144Z,98373.30
2019-05-18T01:06:19.617Z,98378.66
2019-05-18T01:08:51.288Z,98381.61
2019-05-18T01:11:23.048Z,98380.66
2019-05-18T01:13:54.483Z,98376.63
2019-05-18T01:16:25.870Z,98378.37
2019-05-18T01:18:57.557Z,98364.45
2019-05-18T01:21:29.109Z,98372.31
2019-05-18T01:24:00.920Z,98371.93
2019-05-18T01:26:36.521Z,98364.83
2019-05-18T01:29:08.673Z,98358.78
2019-05-18T01:31:40.585Z,98353.23
2019-05-18T01:34:11.974Z,98352.39
2019-05-18T01:36:43.644Z,98350.17
2019-05-18T01:39:15.761Z,98352.79
2019-05-18T01:41:50.057Z,98356.30
2019-05-18T01:44:22.396Z,98349.01
2019-05-18T01:46:56.270Z,98355.66
2019-05-18T01:49:28.325Z,98353.52
2019-05-18T01:52:00.119Z,98341.39
2019-05-18T01:54:31.649Z,98348.92
2019-05-18T01:57:03.333Z,98353.25
2019-05-18T01:59:36.535Z,98350.39
2019-05-18T02:02:08.037Z,98355.57
2019-05-18T02:04:39.297Z,98355.13
2019-05-18T02:07:10.726Z,98360.19
2019-05-18T02:09:45.009Z,98358.04
2019-05-18T02:12:17.093Z,98348.85
2019-05-18T02:14:49.711Z,98354.37
2019-05-18T02:17:24.050Z,98350.34
2019-05-18T02:19:55.536Z,98334.38
2019-05-18T02:22:27.042Z,98349.02
2019-05-18T02:24:58.790Z,98339.93
2019-05-18T02:27:30.645Z,98337.91
2019-05-18T02:30:02.403Z,98342.03
2019-05-18T02:32:43.842Z,98348.03
2019-05-18T02:35:20.103Z,98351.28
2019-05-18T02:37:51.903Z,98344.66
2019-05-18T02:40:23.225Z,98342.44
2019-05-18T02:42:54.882Z,98339.12
2019-05-18T02:45:26.397Z,98339.91
2019-05-18T02:47:58.112Z,98345.20
2019-05-18T02:50:29.609Z,98343.47
2019-05-18T02:53:01.791Z,98333.55
2019-05-18T02:55:33.643Z,98338.77
2019-05-18T02:58:06.153Z,98338.55
2019-05-18T03:00:37.995Z,98354.91
2019-05-18T03:03:09.558Z,98355.23
2019-05-18T03:05:41.021Z,98360.55
2019-05-18T03:08:12.738Z,98364.36
2019-05-18T03:10:44.148Z,98354.03
2019-05-18T03:13:16.569Z,98351.47
2019-05-18T03:15:47.944Z,98350.37
2019-05-18T03:18:19.368Z,98353.66
2019-05-18T03:20:51.024Z,98351.48
2019-05-18T03:23:22.618Z,98352.19
2019-05-18T03:25:54.029Z,98345.61
2019-05-18T03:28:25.728Z,98352.69
2019-05-18T03:30:57.360Z,98345.61
2019-05-18T03:33:30.169Z,98345.98
2019-05-18T03:36:01.735Z,98350.88
2019-05-18T03:38:33.195Z,98348.68
2019-05-18T03:41:04.486Z,98352.73
2019-05-18T03:43:37.857Z,98348.72
2019-05-18T03:46:09.104Z,98349.84
2019-05-18T03:48:40.492Z,98354.16
2019-05-18T03:51:11.942Z,98353.05
2019-05-18T03:53:43.372Z,98354.47
2019-05-18T03:56:14.614Z,98354.77
2019-05-18T03:58:46.135Z,98360.34
2019-05-18T04:01:17.361Z,98349.42
2019-05-18T04:03:48.873Z,98355.64
2019-05-18T04:06:22.958Z,98350.85
2019-05-18T04:08:54.581Z,98357.89
2019-05-18T04:11:25.802Z,98350.28
2019-05-18T04:13:58.488Z,98353.49
2019-05-18T04:16:31.071Z,98350.38
2019-05-18T04:19:02.575Z,98354.69
2019-05-18T04:21:34.102Z,98356.01
2019-05-18T04:24:05.467Z,98361.14
2019-05-18T04:26:36.912Z,98361.16
2019-05-18T04:29:08.693Z,98363.19
2019-05-18T04:31:40.426Z,98366.16
2019-05-18T04:34:12.134Z,98361.19
2019-05-18T04:36:43.729Z,98369.17
2019-05-18T04:39:21.310Z,98372.50
2019-05-18T04:41:52.996Z,98371.24
2019-05-18T04:44:24.530Z,98369.23
2019-05-18T04:46:57.593Z,98365.11
2019-05-18T04:49:30.629Z,98361.62
2019-05-18T04:52:01.933Z,98361.39
2019-05-18T04:54:34.133Z,98362.10
2019-05-18T04:57:06.153Z,98365.88
2019-05-18T04:59:37.599Z,98356.67
2019-05-18T05:02:09.383Z,98368.64
2019-05-18T05:04:41.002Z,98364.04
2019-05-18T05:07:12.320Z,98359.79
2019-05-18T05:09:44.001Z,98368.54
2019-05-18T05:12:16.173Z,98359.94
2019-05-18T05:14:49.951Z,98359.23
2019-05-18T05:17:21.563Z,98361.23
2019-05-18T05:19:52.872Z,98359.05
2019-05-18T05:22:25.314Z,98364.11
2019-05-18T05:24:57.259Z,98360.22
2019-05-18T05:27:30.825Z,98352.23
2019-05-18T05:30:07.231Z,98353.89
2019-05-18T05:32:46.281Z,98354.53
2019-05-18T05:35:18.032Z,98362.41
2019-05-18T05:37:49.918Z,98363.03
2019-05-18T05:40:21.714Z,98369.27
2019-05-18T05:42:53.899Z,98366.42
2019-05-18T05:45:25.983Z,98361.95
2019-05-18T05:47:57.446Z,98368.31
2019-05-18T05:50:35.774Z,98359.17
2019-05-18T05:53:03.048Z,98363.09
2019-05-18T05:55:35.031Z,98358.13
2019-05-18T05:58:06.782Z,98367.69
2019-05-18T06:00:38.185Z,98361.37
2019-05-18T06:03:10.458Z,98365.28
2019-05-18T06:05:41.981Z,98364.84
2019-05-18T06:08:13.611Z,98372.05
2019-05-18T06:10:45.375Z,98372.15
2019-05-18T06:13:16.843Z,98368.19
2019-05-18T06:15:48.335Z,98374.99
2019-05-18T06:18:19.852Z,98375.59
2019-05-18T06:20:52.183Z,98368.19
2019-05-18T06:23:23.621Z,98378.47
2019-05-18T06:25:55.107Z,98372.66
2019-05-18T06:28:26.729Z,98377.63
2019-05-18T06:31:00.237Z,98382.30
2019-05-18T06:33:31.771Z,98382.78
2019-05-18T06:36:03.333Z,98377.73
2019-05-18T06:38:34.791Z,98380.86
2019-05-18T06:41:06.026Z,98380.17
2019-05-18T06:43:37.430Z,98383.85
2019-05-18T06:46:08.700Z,98389.44
2019-05-18T06:48:39.942Z,98385.48
2019-05-18T06:51:11.393Z,98389.38
2019-05-18T06:53:42.985Z,98384.71
2019-05-18T06:56:14.956Z,98385.72
2019-05-18T06:58:46.685Z,98378.59
2019-05-18T07:01:17.945Z,98381.25
2019-05-18T07:03:52.111Z,98379.66
2019-05-18T07:06:23.169Z,98380.52
2019-05-18T07:08:56.469Z,98382.34
2019-05-18T07:11:29.699Z,98383.60
2019-05-18T07:14:01.238Z,98378.37
2019-05-18T07:16:32.739Z,98387.19
2019-05-18T07:19:04.472Z,98386.28
2019-05-18T07:21:35.897Z,98381.90
2019-05-18T07:24:10.049Z,98380.14
2019-05-18T07:26:42.741Z,98386.05
2019-05-18T07:29:50.511Z,98387.35
2019-05-18T07:32:31.330Z,98389.45
2019-05-18T07:35:02.951Z,98388.84
2019-05-18T07:37:45.375Z,98387.65
2019-05-18T07:40:17.074Z,98389.58
2019-05-18T07:42:48.708Z,98389.09
2019-05-18T07:45:20.321Z,98385.46
2019-05-18T07:47:51.633Z,98385.59
2019-05-18T07:50:23.111Z,98390.28
2019-05-18T07:52:54.922Z,98391.51
2019-05-18T07:55:26.604Z,98393.70
2019-05-18T07:58:01.379Z,98388.59
2019-05-18T08:00:34.098Z,98389.42
2019-05-18T08:03:06.266Z,98389.98
2019-05-18T08:05:37.840Z,98394.47
2019-05-18T08:08:09.591Z,98386.30
2019-05-18T08:10:43.616Z,98389.83
2019-05-18T08:13:16.799Z,98389.77
2019-05-18T08:15:48.653Z,98386.66
2019-05-18T08:18:21.927Z,98380.61
2019-05-18T08:20:53.315Z,98392.27
2019-05-18T08:23:24.813Z,98389.97
2019-05-18T08:25:56.951Z,98396.30
2019-05-18T08:28:29.440Z,98399.50
2019-05-18T08:31:01.221Z,98394.81
2019-05-18T08:33:33.057Z,98399.55
2019-05-18T08:36:04.737Z,98400.12
2019-05-18T08:38:36.603Z,98408.56
2019-05-18T08:41:07.894Z,98405.16
2019-05-18T08:43:39.184Z,98416.81
2019-05-18T08:46:10.616Z,98408.28
2019-05-18T08:48:42.063Z,98416.64
2019-05-18T08:51:16.068Z,98416.01
2019-05-18T08:53:47.808Z,98409.80
2019-05-18T08:56:19.280Z,98412.94
2019-05-18T08:58:51.749Z,98405.59
2019-05-18T09:01:23.429Z,98410.19
2019-05-18T09:03:54.763Z,98403.59
2019-05-18T09:06:26.531Z,98411.08
2019-05-18T09:08:57.940Z,98408.33
2019-05-18T09:11:29.592Z,98405.75
2019-05-18T09:14:01.376Z,98410.47
2019-05-18T09:16:32.813Z,98411.55
2019-05-18T09:19:04.804Z,98413.13
2019-05-18T09:21:36.349Z,98415.11
2019-05-18T09:24:09.126Z,98407.12
2019-05-18T09:26:42.036Z,98404.24
2019-05-18T09:29:16.879Z,98405.28
2019-05-18T09:31:48.421Z,98401.83
2019-05-18T09:34:19.867Z,98410.39
2019-05-18T09:36:51.948Z,98393.49
2019-05-18T09:39:23.383Z,98408.86
2019-05-18T09:41:56.266Z,98398.81
2019-05-18T09:44:27.858Z,98399.42
2019-05-18T09:46:59.639Z,98405.95
2019-05-18T09:49:30.996Z,98410.05
2019-05-18T09:52:02.747Z,98406.17
2019-05-18T09:54:35.607Z,98390.13
2019-05-18T09:57:06.901Z,98387.55
2019-05-18T09:59:39.374Z,98390.31
2019-05-18T10:02:10.812Z,98387.08
2019-05-18T10:04:42.734Z,98382.49
2019-05-18T10:07:14.288Z,98384.45
2019-05-18T10:09:45.689Z,98380.01
2019-05-18T10:12:17.157Z,98382.09
2019-05-18T10:14:48.752Z,98375.51
2019-05-18T10:17:20.012Z,98381.84
2019-05-18T10:19:51.229Z,98379.24
2019-05-18T10:22:22.965Z,98374.16
2019-05-18T10:24:54.576Z,98380.63
2019-05-18T10:27:27.270Z,98380.72
2019-05-18T10:29:58.528Z,98379.97
2019-05-18T10:32:31.409Z,98379.98
2019-05-18T10:35:14.261Z,98379.70
2019-05-18T10:37:45.566Z,98369.00
2019-05-18T10:40:18.109Z,98366.20
2019-05-18T10:42:49.649Z,98371.08
2019-05-18T10:45:21.055Z,98367.77
2019-05-18T10:48:28.647Z,98365.74
2019-05-18T10:51:15.361Z,98352.08
2019-05-18T10:53:48.030Z,98361.77
2019-05-18T10:56:57.073Z,98355.88
2019-05-18T10:59:28.385Z,98350.13
2019-05-18T11:02:10.748Z,98357.25
2019-05-18T11:04:43.023Z,98363.31
2019-05-18T11:07:14.407Z,98351.12
2019-05-18T11:09:57.266Z,98354.89
2019-05-18T11:12:47.074Z,98351.77
2019-05-18T11:15:29.131Z,98347.99
2019-05-18T11:18:10.936Z,98351.80
2019-05-18T11:20:48.666Z,98337.17
2019-05-18T11:23:26.687Z,98358.44
2019-05-18T11:26:07.664Z,98349.13
2019-05-18T11:28:39.731Z,98350.08
2019-05-18T11:31:11.804Z,98336.12
2019-05-18T11:33:43.497Z,98347.30
2019-05-18T11:36:14.968Z,98334.50
2019-05-18T11:38:47.345Z,98346.97
2019-05-18T11:41:18.910Z,98334.75
2019-05-18T11:43:50.380Z,98340.40
2019-05-18T11:46:22.211Z,98346.45
2019-05-18T11:48:54.464Z,98343.04
2019-05-18T11:51:26.298Z,98340.95
2019-05-18T11:53:58.663Z,98337.42
2019-05-18T11:56:30.678Z,98337.88
2019-05-18T11:59:02.214Z,98339.02
2019-05-18T12:01:33.919Z,98341.06
2019-05-18T12:04:05.662Z,98335.20
2019-05-18T12:06:37.385Z,98339.52
2019-05-18T12:09:09.177Z,98328.58
2019-05-18T12:11:41.029Z,98334.89
2019-05-18T12:14:12.845Z,98337.42
2019-05-18T12:16:46.116Z,98335.16
2019-05-18T12:19:17.475Z,98324.25
2019-05-18T12:21:49.453Z,98325.04
2019-05-18T12:24:22.661Z,98321.70
2019-05-18T12:26:57.912Z,98320.03
2019-05-18T12:29:30.717Z,98312.50
2019-05-18T12:32:03.817Z,98308.27
2019-05-18T12:34:35.507Z,98304.84
2019-05-18T12:37:07.082Z,98303.78
2019-05-18T12:39:38.400Z,98303.98
2019-05-18T12:42:09.900Z,98295.90
2019-05-18T12:44:41.171Z,98286.78
2019-05-18T12:47:14.486Z,98283.36
2019-05-18T12:49:45.592Z,98284.48
2019-05-18T12:52:18.429Z,98281.94
2019-05-18T12:54:50.968Z,98280.83
2019-05-18T12:57:22.955Z,98275.44
2019-05-18T12:59:54.527Z,98272.66
2019-05-18T13:02:26.412Z,98260.31
2019-05-18T13:04:58.291Z,98260.88
2019-05-18T13:07:30.428Z,97889.80
2019-05-18T13:10:01.854Z,98257.53
2019-05-18T13:12:43.976Z,98260.83
2019-05-18T13:15:17.643Z,98256.95
2019-05-18T13:17:50.930Z,98256.00
2019-05-18T13:20:25.039Z,98259.73
2019-05-18T13:22:56.832Z,98259.55
2019-05-18T13:25:28.420Z,98255.15
2019-05-18T13:27:59.723Z,98252.27
2019-05-18T13:30:31.527Z,98256.59
2019-05-18T13:33:05.624Z,98247.97
2019-05-18T13:35:38.227Z,98250.20
2019-05-18T13:38:10.059Z,98245.88
2019-05-18T13:40:41.735Z,98246.81
2019-05-18T13:43:13.029Z,98249.23
2019-05-18T13:45:47.051Z,98234.69
2019-05-18T13:48:18.498Z,97650.52
2019-05-18T13:50:50.958Z,98237.59
2019-05-18T13:53:22.824Z,98233.29
2019-05-18T13:55:56.607Z,98233.58
2019-05-18T13:58:30.779Z,98229.59
2019-05-18T14:01:02.714Z,98227.45
2019-05-18T14:03:34.745Z,98231.63
2019-05-18T14:06:06.125Z,98227.84
2019-05-18T14:08:38.672Z,98232.00
2019-05-18T14:11:10.331Z,98226.34
2019-05-18T14:13:42.655Z,98232.48
2019-05-18T14:16:14.265Z,98219.80
2019-05-18T14:18:47.853Z,98223.48
2019-05-18T14:21:19.150Z,98218.58
2019-05-18T14:23:50.460Z,98219.89
2019-05-18T14:26:21.837Z,98219.08
2019-05-18T14:28:53.109Z,98218.68
2019-05-18T14:31:24.799Z,98232.06
2019-05-18T14:33:56.352Z,98218.34
2019-05-18T14:36:27.663Z,98223.14
2019-05-18T14:38:59.357Z,98207.02
2019-05-18T14:41:30.984Z,98206.74
2019-05-18T14:44:02.603Z,98216.89
2019-05-18T14:46:34.464Z,98195.50
2019-05-18T14:49:05.720Z,98191.88
2019-05-18T14:51:37.063Z,98192.27
2019-05-18T14:54:08.428Z,98193.03
2019-05-18T14:56:42.226Z,98185.23
2019-05-18T14:59:13.560Z,98187.31
2019-05-18T15:01:45.007Z,98188.27
2019-05-18T15:04:18.769Z,98184.48
2019-05-18T15:06:50.314Z,98191.79
2019-05-18T15:09:21.570Z,98183.48
2019-05-18T15:11:52.993Z,98187.36
2019-05-18T15:14:24.811Z,98170.25
2019-05-18T15:16:57.012Z,98172.14
2019-05-18T15:19:28.869Z,98173.52
2019-05-18T15:22:02.080Z,98176.87
2019-05-18T15:24:34.848Z,98174.45
2019-05-18T15:27:08.741Z,98168.95
2019-05-18T15:29:43.379Z,98171.32
2019-05-18T15:32:14.959Z,98168.86
2019-05-18T15:34:47.224Z,98164.17
2019-05-18T15:37:19.863Z,98168.95
2019-05-18T15:39:51.742Z,98164.08
2019-05-18T15:42:23.986Z,98164.35
2019-05-18T15:44:55.327Z,98154.39
2019-05-18T15:47:27.224Z,98158.36
2019-05-18T15:50:00.129Z,98155.84
2019-05-18T15:52:42.455Z,98150.42
2019-05-18T15:55:18.312Z,98150.12
2019-05-18T15:57:52.898Z,98141.67
2019-05-18T16:00:24.968Z,98144.53
2019-05-18T16:03:00.015Z,98151.58
2019-05-18T16:05:34.471Z,98145.08
2019-05-18T16:08:06.017Z,98138.45
2019-05-18T16:10:40.019Z,98134.38
2019-05-18T16:13:12.607Z,98134.69
2019-05-18T16:15:46.094Z,98135.84
2019-05-18T16:18:18.004Z,98136.77
2019-05-18T16:20:50.960Z,98133.53
2019-05-18T16:23:24.490Z,98147.13
2019-05-18T16:25:56.974Z,98151.17
2019-05-18T16:28:29.854Z,98152.80
2019-05-18T16:31:03.432Z,98143.43
2019-05-18T16:33:36.913Z,98150.30
2019-05-18T16:36:10.367Z,98138.38
2019-05-18T16:38:44.482Z,98145.58
2019-05-18T16:41:18.050Z,98145.91
2019-05-18T16:43:51.407Z,98144.86
2019-05-18T16:46:23.028Z,98147.70
2019-05-18T16:48:57.089Z,98150.63
2019-05-18T16:51:28.993Z,98148.39
2019-05-18T16:54:03.224Z,98147.50
2019-05-18T16:56:36.376Z,98149.31
2019-05-18T16:59:08.277Z,98149.98
2019-05-18T17:01:41.641Z,98146.67
2019-05-18T17:04:15.182Z,98150.17
2019-05-18T17:06:47.351Z,98148.23
2019-05-18T17:09:22.544Z,98151.34
2019-05-18T17:11:55.163Z,98152.03
2019-05-18T17:14:27.269Z,98146.99
2019-05-18T17:17:01.805Z,98137.53
2019-05-18T17:19:34.729Z,98141.33
2019-05-18T17:22:07.546Z,98140.91
2019-05-18T17:24:46.173Z,98140.42
2019-05-18T17:27:22.737Z,98140.63
2019-05-18T17:29:56.301Z,98140.19
2019-05-18T17:32:30.479Z,98134.59
2019-05-18T17:35:02.121Z,98142.99
2019-05-18T17:37:45.951Z,98147.31
2019-05-18T17:40:19.705Z,98144.95
2019-05-18T17:43:03.382Z,98142.43
2019-05-18T17:45:46.569Z,98141.88
2019-05-18T17:48:31.690Z,98143.27
2019-05-18T17:51:14.104Z,98142.98
2019-05-18T17:53:54.000Z,98144.23
2019-05-18T17:56:31.631Z,98138.84
2019-05-18T17:59:05.584Z,98144.91
2019-05-18T18:01:39.030Z,98146.48
2019-05-18T18:04:12.218Z,98142.42
2019-05-18T18:06:45.576Z,98143.09
2019-05-18T18:09:17.700Z,98149.89
2019-05-18T18:11:54.697Z,98149.17
2019-05-18T18:14:27.617Z,98153.11
2019-05-18T18:17:00.139Z,98153.11
2019-05-18T18:19:33.562Z,98152.92
2019-05-18T18:22:05.737Z,98148.67
2019-05-18T18:24:40.651Z,98149.06
2019-05-18T18:27:24.887Z,98154.48
2019-05-18T18:29:50.030Z,98153.09
2019-05-18T18:32:24.032Z,98158.36
2019-05-18T18:34:58.386Z,98159.94
2019-05-18T18:37:30.673Z,98170.08
2019-05-18T18:40:02.974Z,98172.74
2019-05-18T18:42:47.711Z,98179.23
2019-05-18T18:45:20.973Z,98178.30
2019-05-18T18:47:54.507Z,98179.42
2019-05-18T18:50:26.689Z,98178.97
2019-05-18T18:53:00.608Z,98180.37
2019-05-18T18:55:32.713Z,98185.95
2019-05-18T18:58:05.757Z,98191.76
2019-05-18T19:00:38.909Z,98192.77
2019-05-18T19:03:11.984Z,98191.03
2019-05-18T19:05:47.003Z,98198.14
2019-05-18T19:08:20.863Z,98202.63
2019-05-18T19:10:53.926Z,98205.29
2019-05-18T19:13:26.565Z,98203.20
2019-05-18T19:16:01.338Z,98208.36
2019-05-18T19:18:32.746Z,98202.63
2019-05-18T19:21:05.289Z,98201.27
2019-05-18T19:23:38.331Z,98197.28
2019-05-18T19:26:11.740Z,98199.26
2019-05-18T19:28:45.110Z,98201.92
2019-05-18T19:31:17.803Z,98202.59
2019-05-18T19:33:51.703Z,98205.72
2019-05-18T19:36:23.137Z,98209.52
2019-05-18T19:38:56.907Z,98212.84
2019-05-18T19:41:34.323Z,98210.53
2019-05-18T19:44:06.085Z,98209.66
2019-05-18T19:46:44.286Z,98205.22
2019-05-18T19:49:17.759Z,98206.73
2019-05-18T19:51:51.146Z,98209.31
2019-05-18T19:54:24.810Z,98212.41
2019-05-18T19:56:57.194Z,98205.76
2019-05-18T19:59:30.558Z,98208.64
2019-05-18T20:02:04.178Z,98204.61
2019-05-18T20:04:36.731Z,98204.53
2019-05-18T20:07:11.438Z,98205.91
2019-05-18T20:09:43.584Z,98201.55
2019-05-18T20:12:15.307Z,98208.70
2019-05-18T20:14:48.859Z,98200.75
2019-05-18T20:17:21.300Z,98201.00
2019-05-18T20:19:54.221Z,98203.72
2019-05-18T20:22:27.012Z,98205.56
2019-05-18T20:25:02.534Z,98198.91
2019-05-18T20:27:45.141Z,98200.28
2019-05-18T20:30:19.130Z,98196.98
2019-05-18T20:32:53.164Z,98194.27
2019-05-18T20:35:26.135Z,98185.47
2019-05-18T20:37:58.200Z,98188.85
2019-05-18T20:40:30.291Z,98183.40
2019-05-18T20:43:02.997Z,98180.11
2019-05-18T20:45:37.366Z,98172.25
2019-05-18T20:48:10.049Z,98168.84
2019-05-18T20:50:42.314Z,98170.43
2019-05-18T20:53:15.867Z,98171.16
2019-05-18T20:55:48.512Z,98173.27
2019-05-18T20:58:21.586Z,98165.67
2019-05-18T21:00:54.412Z,98169.38
2019-05-18T21:03:28.792Z,98168.05
2019-05-18T21:06:03.049Z,98165.20
2019-05-18T21:08:36.318Z,98167.30
2019-05-18T21:11:09.862Z,98160.26
2019-05-18T21:13:42.502Z,98170.85
2019-05-18T21:16:14.643Z,98173.45
2019-05-18T21:18:47.201Z,98167.14
2019-05-18T21:21:25.055Z,98163.72
2019-05-18T21:23:53.732Z,98166.45
2019-05-18T21:26:27.634Z,98164.59
2019-05-18T21:29:02.000Z,98167.45
2019-05-18T21:31:48.462Z,98166.95
2019-05-18T21:34:33.846Z,98157.16
2019-05-18T21:37:05.626Z,98155.56
2019-05-18T21:39:47.240Z,98149.66
2019-05-18T21:42:24.768Z,98148.53
2019-05-18T21:44:59.428Z,98148.39
2019-05-18T21:47:47.234Z,98146.06
2019-05-18T21:50:20.744Z,98138.61
2019-05-18T21:52:53.860Z,98135.61
2019-05-18T21:55:44.309Z,98133.59
2019-05-18T21:58:18.540Z,98135.02
2019-05-18T22:00:53.825Z,98137.00
2019-05-18T22:03:28.627Z,98139.19
2019-05-18T22:06:03.626Z,98136.30
2019-05-18T22:08:35.476Z,98142.47
2019-05-18T22:11:09.329Z,98142.13
2019-05-18T22:13:41.775Z,98141.91
2019-05-18T22:16:15.212Z,98133.48
2019-05-18T22:18:49.399Z,98124.63
2019-05-18T22:21:23.485Z,98131.25
2019-05-18T22:23:55.811Z,98117.98
2019-05-18T22:26:31.407Z,98117.25
2019-05-18T22:29:05.794Z,98112.70
2019-05-18T22:31:45.669Z,98104.97
2019-05-18T22:34:19.307Z,98114.75
2019-05-18T22:36:56.463Z,98111.31
2019-05-18T22:39:26.969Z,98109.94
2019-05-18T22:42:01.296Z,98102.97
2019-05-18T22:44:35.536Z,98100.53
2019-05-18T22:47:08.845Z,98095.69
2019-05-18T22:49:42.843Z,98093.64
2019-05-18T22:52:14.912Z,98086.28
2019-05-18T22:54:46.641Z,98084.83
2019-05-18T22:57:21.607Z,98087.73
2019-05-18T22:59:53.004Z,98084.36
2019-05-18T23:02:27.282Z,98087.41
2019-05-18T23:05:00.516Z,98079.91
2019-05-18T23:07:43.006Z,98081.78
2019-05-18T23:10:17.146Z,98080.86
2019-05-18T23:12:50.958Z,98079.63
2019-05-18T23:15:22.940Z,98077.42
2019-05-18T23:17:56.796Z,98075.42
2019-05-18T23:20:30.781Z,98071.78
2019-05-18T23:23:05.581Z,98072.89
2019-05-18T23:25:39.970Z,98077.42
2019-05-18T23:28:12.404Z,98073.70
2019-05-18T23:30:44.884Z,98077.23
2019-05-18T23:33:16.816Z,98073.83
2019-05-18T23:35:48.352Z,98068.08
2019-05-18T23:38:22.047Z,98072.27
2019-05-18T23:40:58.329Z,98062.28
2019-05-18T23:43:29.961Z,98067.98
2019-05-18T23:46:03.186Z,98060.77
2019-05-18T23:48:36.069Z,98056.91
2019-05-18T23:51:11.076Z,98056.20
2019-05-18T23:53:44.961Z,98057.66
2019-05-18T23:56:18.005Z,98059.43
2019-05-18T23:58:52.489Z,98059.52
